sensor_id;sensor_type;location;lat;lon;timestamp;P1;durP1;ratioP1;P2;durP2;ratioP2
19095;SDS011;9680;52.520;13.332;2022-10-16T00:01:41;3.00;;;2.00;;
19095;SDS011;9680;52.520;13.332;2022-10-16T00:04:07;3.33;;;2.00;;
19095;SDS011;9680;52.520;13.332;2022-10-16T00:06:33;3.40;;;1.80;;
19095;SDS011;9680;52.520;13.332;2022-10-16T00:08:59;2.83;;;2.03;;
19095;SDS011;9680;52.520;13.332;2022-10-16T00:11:32;2.58;;;1.80;;
19095;SDS011;9680;52.520;13.332;2022-10-16T00:14:02;2.65;;;2.00;;
19095;SDS011;9680;52.520;13.332;2022-10-16T00:16:30;3.45;;;1.88;;
19095;SDS011;9680;52.520;13.332;2022-10-16T00:18:56;4.38;;;1.83;;
19095;SDS011;9680;52.520;13.332;2022-10-16T00:21:23;2.60;;;1.85;;
19095;SDS011;9680;52.520;13.332;2022-10-16T00:23:50;2.90;;;1.80;;
19095;SDS011;9680;52.520;13.332;2022-10-16T00:26:17;4.55;;;2.05;;
19095;SDS011;9680;52.520;13.332;2022-10-16T00:28:45;3.05;;;2.00;;
19095;SDS011;9680;52.520;13.332;2022-10-16T00:31:12;3.13;;;1.98;;
19095;SDS011;9680;52.520;13.332;2022-10-16T00:33:38;3.05;;;2.00;;
19095;SDS011;9680;52.520;13.332;2022-10-16T00:36:05;2.95;;;1.80;;
19095;SDS011;9680;52.520;13.332;2022-10-16T00:38:32;2.58;;;1.95;;
19095;SDS011;9680;52.520;13.332;2022-10-16T00:40:58;6.88;;;2.25;;
19095;SDS011;9680;52.520;13.332;2022-10-16T00:43:43;2.50;;;1.90;;
19095;SDS011;9680;52.520;13.332;2022-10-16T00:46:15;2.60;;;1.80;;
19095;SDS011;9680;52.520;13.332;2022-10-16T00:48:48;3.25;;;1.95;;
19095;SDS011;9680;52.520;13.332;2022-10-16T00:51:18;3.35;;;2.00;;
19095;SDS011;9680;52.520;13.332;2022-10-16T00:53:46;2.80;;;1.98;;
19095;SDS011;9680;52.520;13.332;2022-10-16T00:56:13;2.42;;;1.73;;
19095;SDS011;9680;52.520;13.332;2022-10-16T00:58:39;3.72;;;1.70;;
19095;SDS011;9680;52.520;13.332;2022-10-16T01:01:05;2.53;;;1.70;;
19095;SDS011;9680;52.520;13.332;2022-10-16T01:03:31;2.45;;;1.83;;
19095;SDS011;9680;52.520;13.332;2022-10-16T01:08:43;3.53;;;2.00;;
19095;SDS011;9680;52.520;13.332;2022-10-16T01:11:21;2.67;;;1.70;;
19095;SDS011;9680;52.520;13.332;2022-10-16T01:13:53;2.35;;;1.73;;
19095;SDS011;9680;52.520;13.332;2022-10-16T01:16:40;4.07;;;1.77;;
19095;SDS011;9680;52.520;13.332;2022-10-16T01:19:16;1.88;;;1.50;;
19095;SDS011;9680;52.520;13.332;2022-10-16T01:22:04;2.40;;;1.73;;
19095;SDS011;9680;52.520;13.332;2022-10-16T01:24:33;3.08;;;1.90;;
19095;SDS011;9680;52.520;13.332;2022-10-16T01:32:49;2.53;;;1.67;;
19095;SDS011;9680;52.520;13.332;2022-10-16T01:35:18;2.33;;;1.70;;
19095;SDS011;9680;52.520;13.332;2022-10-16T01:37:51;3.05;;;1.90;;
19095;SDS011;9680;52.520;13.332;2022-10-16T01:40:23;3.10;;;1.67;;
19095;SDS011;9680;52.520;13.332;2022-10-16T01:45:38;2.55;;;1.73;;
19095;SDS011;9680;52.520;13.332;2022-10-16T01:48:06;3.47;;;1.73;;
19095;SDS011;9680;52.520;13.332;2022-10-16T01:50:35;3.25;;;1.60;;
19095;SDS011;9680;52.520;13.332;2022-10-16T01:53:05;4.38;;;1.95;;
19095;SDS011;9680;52.520;13.332;2022-10-16T01:55:33;2.83;;;2.00;;
19095;SDS011;9680;52.520;13.332;2022-10-16T01:58:03;3.10;;;1.67;;
19095;SDS011;9680;52.520;13.332;2022-10-16T02:00:32;2.30;;;1.63;;
19095;SDS011;9680;52.520;13.332;2022-10-16T02:02:58;3.83;;;1.65;;
19095;SDS011;9680;52.520;13.332;2022-10-16T02:05:29;2.45;;;1.73;;
19095;SDS011;9680;52.520;13.332;2022-10-16T02:08:16;2.88;;;1.60;;
19095;SDS011;9680;52.520;13.332;2022-10-16T02:10:42;2.83;;;1.85;;
19095;SDS011;9680;52.520;13.332;2022-10-16T02:15:48;2.25;;;1.80;;
19095;SDS011;9680;52.520;13.332;2022-10-16T02:18:14;3.50;;;1.60;;
19095;SDS011;9680;52.520;13.332;2022-10-16T02:20:51;2.92;;;1.63;;
19095;SDS011;9680;52.520;13.332;2022-10-16T02:23:37;3.13;;;1.50;;
19095;SDS011;9680;52.520;13.332;2022-10-16T02:26:07;2.50;;;1.70;;
19095;SDS011;9680;52.520;13.332;2022-10-16T02:28:39;2.63;;;1.70;;
19095;SDS011;9680;52.520;13.332;2022-10-16T02:31:08;2.60;;;1.83;;
19095;SDS011;9680;52.520;13.332;2022-10-16T02:33:38;2.25;;;1.73;;
19095;SDS011;9680;52.520;13.332;2022-10-16T02:36:07;4.65;;;1.83;;
19095;SDS011;9680;52.520;13.332;2022-10-16T02:38:33;3.17;;;1.70;;
19095;SDS011;9680;52.520;13.332;2022-10-16T02:40:59;3.30;;;1.80;;
19095;SDS011;9680;52.520;13.332;2022-10-16T02:43:25;2.33;;;1.60;;
19095;SDS011;9680;52.520;13.332;2022-10-16T02:45:51;2.53;;;1.70;;
19095;SDS011;9680;52.520;13.332;2022-10-16T02:48:17;2.40;;;1.70;;
19095;SDS011;9680;52.520;13.332;2022-10-16T02:50:42;2.08;;;1.58;;
19095;SDS011;9680;52.520;13.332;2022-10-16T02:53:08;2.10;;;1.48;;
19095;SDS011;9680;52.520;13.332;2022-10-16T02:55:33;1.92;;;1.48;;
19095;SDS011;9680;52.520;13.332;2022-10-16T02:57:59;2.80;;;1.55;;
19095;SDS011;9680;52.520;13.332;2022-10-16T03:00:25;2.95;;;1.80;;
19095;SDS011;9680;52.520;13.332;2022-10-16T03:02:50;2.50;;;1.50;;
19095;SDS011;9680;52.520;13.332;2022-10-16T03:05:16;2.10;;;1.70;;
19095;SDS011;9680;52.520;13.332;2022-10-16T03:07:42;3.42;;;1.80;;
19095;SDS011;9680;52.520;13.332;2022-10-16T03:10:07;3.88;;;1.98;;
19095;SDS011;9680;52.520;13.332;2022-10-16T03:12:33;3.20;;;2.30;;
19095;SDS011;9680;52.520;13.332;2022-10-16T03:14:59;3.92;;;1.90;;
19095;SDS011;9680;52.520;13.332;2022-10-16T03:17:24;2.63;;;1.75;;
19095;SDS011;9680;52.520;13.332;2022-10-16T03:19:50;2.10;;;1.55;;
19095;SDS011;9680;52.520;13.332;2022-10-16T03:22:16;1.98;;;1.58;;
19095;SDS011;9680;52.520;13.332;2022-10-16T03:24:41;2.90;;;1.80;;
19095;SDS011;9680;52.520;13.332;2022-10-16T03:27:08;2.83;;;1.60;;
19095;SDS011;9680;52.520;13.332;2022-10-16T03:29:33;3.42;;;1.88;;
19095;SDS011;9680;52.520;13.332;2022-10-16T03:31:59;2.45;;;1.80;;
19095;SDS011;9680;52.520;13.332;2022-10-16T03:34:25;2.92;;;1.83;;
19095;SDS011;9680;52.520;13.332;2022-10-16T03:36:51;2.65;;;1.65;;
19095;SDS011;9680;52.520;13.332;2022-10-16T03:39:17;3.55;;;1.70;;
19095;SDS011;9680;52.520;13.332;2022-10-16T03:41:42;2.35;;;1.63;;
19095;SDS011;9680;52.520;13.332;2022-10-16T03:44:07;2.45;;;1.70;;
19095;SDS011;9680;52.520;13.332;2022-10-16T03:46:33;6.70;;;2.00;;
19095;SDS011;9680;52.520;13.332;2022-10-16T03:48:58;3.35;;;1.92;;
19095;SDS011;9680;52.520;13.332;2022-10-16T03:51:24;2.72;;;1.80;;
19095;SDS011;9680;52.520;13.332;2022-10-16T03:53:49;2.63;;;1.80;;
19095;SDS011;9680;52.520;13.332;2022-10-16T03:56:15;3.40;;;2.00;;
19095;SDS011;9680;52.520;13.332;2022-10-16T03:58:40;2.85;;;1.85;;
19095;SDS011;9680;52.520;13.332;2022-10-16T04:01:06;3.05;;;1.70;;
19095;SDS011;9680;52.520;13.332;2022-10-16T04:03:32;5.13;;;1.80;;
19095;SDS011;9680;52.520;13.332;2022-10-16T04:05:57;3.08;;;1.95;;
19095;SDS011;9680;52.520;13.332;2022-10-16T04:08:23;3.55;;;2.05;;
19095;SDS011;9680;52.520;13.332;2022-10-16T04:10:48;3.20;;;1.80;;
19095;SDS011;9680;52.520;13.332;2022-10-16T04:13:14;3.30;;;1.88;;
19095;SDS011;9680;52.520;13.332;2022-10-16T04:15:40;2.55;;;1.90;;
19095;SDS011;9680;52.520;13.332;2022-10-16T04:18:06;2.53;;;1.80;;
19095;SDS011;9680;52.520;13.332;2022-10-16T04:20:32;3.42;;;2.20;;
19095;SDS011;9680;52.520;13.332;2022-10-16T04:22:58;7.28;;;2.00;;
19095;SDS011;9680;52.520;13.332;2022-10-16T04:25:23;7.25;;;2.10;;
19095;SDS011;9680;52.520;13.332;2022-10-16T04:27:49;4.50;;;1.90;;
19095;SDS011;9680;52.520;13.332;2022-10-16T04:30:14;2.67;;;1.70;;
19095;SDS011;9680;52.520;13.332;2022-10-16T04:32:40;5.35;;;2.00;;
19095;SDS011;9680;52.520;13.332;2022-10-16T04:35:06;4.20;;;1.75;;
19095;SDS011;9680;52.520;13.332;2022-10-16T04:37:31;3.13;;;1.90;;
19095;SDS011;9680;52.520;13.332;2022-10-16T04:39:57;3.15;;;2.10;;
19095;SDS011;9680;52.520;13.332;2022-10-16T04:42:22;3.15;;;2.00;;
19095;SDS011;9680;52.520;13.332;2022-10-16T04:44:48;2.80;;;1.95;;
19095;SDS011;9680;52.520;13.332;2022-10-16T04:47:14;3.25;;;1.98;;
19095;SDS011;9680;52.520;13.332;2022-10-16T04:49:39;2.75;;;1.67;;
19095;SDS011;9680;52.520;13.332;2022-10-16T04:52:05;2.80;;;1.80;;
19095;SDS011;9680;52.520;13.332;2022-10-16T04:54:31;3.80;;;1.63;;
19095;SDS011;9680;52.520;13.332;2022-10-16T04:56:56;2.70;;;1.90;;
19095;SDS011;9680;52.520;13.332;2022-10-16T04:59:22;2.55;;;1.92;;
19095;SDS011;9680;52.520;13.332;2022-10-16T05:01:48;2.83;;;1.90;;
19095;SDS011;9680;52.520;13.332;2022-10-16T05:04:14;3.17;;;1.80;;
19095;SDS011;9680;52.520;13.332;2022-10-16T05:06:40;5.85;;;1.83;;
19095;SDS011;9680;52.520;13.332;2022-10-16T05:09:06;2.80;;;1.80;;
19095;SDS011;9680;52.520;13.332;2022-10-16T05:11:32;2.92;;;1.90;;
19095;SDS011;9680;52.520;13.332;2022-10-16T05:13:59;3.40;;;2.22;;
19095;SDS011;9680;52.520;13.332;2022-10-16T05:16:25;2.78;;;1.85;;
19095;SDS011;9680;52.520;13.332;2022-10-16T05:18:51;2.15;;;1.65;;
19095;SDS011;9680;52.520;13.332;2022-10-16T05:21:17;3.00;;;1.90;;
19095;SDS011;9680;52.520;13.332;2022-10-16T05:23:43;3.20;;;1.65;;
19095;SDS011;9680;52.520;13.332;2022-10-16T05:26:08;5.20;;;1.95;;
19095;SDS011;9680;52.520;13.332;2022-10-16T05:28:34;3.00;;;1.98;;
19095;SDS011;9680;52.520;13.332;2022-10-16T05:31:03;4.18;;;1.90;;
19095;SDS011;9680;52.520;13.332;2022-10-16T05:33:30;4.40;;;3.00;;
19095;SDS011;9680;52.520;13.332;2022-10-16T05:35:56;2.92;;;2.00;;
19095;SDS011;9680;52.520;13.332;2022-10-16T05:38:21;8.95;;;4.60;;
19095;SDS011;9680;52.520;13.332;2022-10-16T05:40:50;4.55;;;2.10;;
19095;SDS011;9680;52.520;13.332;2022-10-16T05:43:17;4.85;;;2.30;;
19095;SDS011;9680;52.520;13.332;2022-10-16T05:45:43;3.65;;;2.30;;
19095;SDS011;9680;52.520;13.332;2022-10-16T05:48:08;2.20;;;1.67;;
19095;SDS011;9680;52.520;13.332;2022-10-16T05:50:34;2.85;;;1.80;;
19095;SDS011;9680;52.520;13.332;2022-10-16T05:52:59;2.78;;;1.83;;
19095;SDS011;9680;52.520;13.332;2022-10-16T05:55:25;3.28;;;1.83;;
19095;SDS011;9680;52.520;13.332;2022-10-16T05:57:53;3.33;;;1.98;;
19095;SDS011;9680;52.520;13.332;2022-10-16T06:00:19;4.40;;;1.80;;
19095;SDS011;9680;52.520;13.332;2022-10-16T06:02:45;4.68;;;2.03;;
19095;SDS011;9680;52.520;13.332;2022-10-16T06:05:11;6.47;;;2.35;;
19095;SDS011;9680;52.520;13.332;2022-10-16T06:07:36;2.42;;;1.80;;
19095;SDS011;9680;52.520;13.332;2022-10-16T06:10:02;2.22;;;1.70;;
19095;SDS011;9680;52.520;13.332;2022-10-16T06:12:29;2.67;;;1.90;;
19095;SDS011;9680;52.520;13.332;2022-10-16T06:14:54;2.20;;;1.70;;
19095;SDS011;9680;52.520;13.332;2022-10-16T06:17:20;5.85;;;2.40;;
19095;SDS011;9680;52.520;13.332;2022-10-16T06:19:45;4.70;;;2.17;;
19095;SDS011;9680;52.520;13.332;2022-10-16T06:22:11;2.70;;;1.98;;
19095;SDS011;9680;52.520;13.332;2022-10-16T06:24:37;5.70;;;2.00;;
19095;SDS011;9680;52.520;13.332;2022-10-16T06:27:03;2.53;;;1.88;;
19095;SDS011;9680;52.520;13.332;2022-10-16T06:29:29;3.55;;;1.80;;
19095;SDS011;9680;52.520;13.332;2022-10-16T06:31:54;2.97;;;1.88;;
19095;SDS011;9680;52.520;13.332;2022-10-16T06:34:20;3.78;;;2.20;;
19095;SDS011;9680;52.520;13.332;2022-10-16T06:36:45;4.78;;;2.38;;
19095;SDS011;9680;52.520;13.332;2022-10-16T06:39:11;2.85;;;2.17;;
19095;SDS011;9680;52.520;13.332;2022-10-16T06:41:40;5.55;;;2.72;;
19095;SDS011;9680;52.520;13.332;2022-10-16T06:44:14;7.13;;;2.20;;
19095;SDS011;9680;52.520;13.332;2022-10-16T06:46:40;4.07;;;2.13;;
19095;SDS011;9680;52.520;13.332;2022-10-16T06:49:05;3.67;;;2.10;;
19095;SDS011;9680;52.520;13.332;2022-10-16T06:51:31;4.82;;;1.90;;
19095;SDS011;9680;52.520;13.332;2022-10-16T06:53:59;5.72;;;2.15;;
19095;SDS011;9680;52.520;13.332;2022-10-16T06:56:25;3.90;;;2.30;;
19095;SDS011;9680;52.520;13.332;2022-10-16T06:58:52;2.53;;;2.00;;
19095;SDS011;9680;52.520;13.332;2022-10-16T07:01:19;5.10;;;2.50;;
19095;SDS011;9680;52.520;13.332;2022-10-16T07:03:47;4.80;;;2.10;;
19095;SDS011;9680;52.520;13.332;2022-10-16T07:06:13;3.70;;;2.58;;
19095;SDS011;9680;52.520;13.332;2022-10-16T07:08:42;2.97;;;2.05;;
19095;SDS011;9680;52.520;13.332;2022-10-16T07:11:09;2.85;;;2.05;;
19095;SDS011;9680;52.520;13.332;2022-10-16T07:13:40;7.47;;;2.20;;
19095;SDS011;9680;52.520;13.332;2022-10-16T07:16:07;2.85;;;1.83;;
19095;SDS011;9680;52.520;13.332;2022-10-16T07:18:36;2.83;;;1.90;;
19095;SDS011;9680;52.520;13.332;2022-10-16T07:21:07;2.28;;;1.70;;
19095;SDS011;9680;52.520;13.332;2022-10-16T07:23:35;3.30;;;2.10;;
19095;SDS011;9680;52.520;13.332;2022-10-16T07:26:01;2.40;;;1.80;;
19095;SDS011;9680;52.520;13.332;2022-10-16T07:28:27;4.07;;;1.80;;
19095;SDS011;9680;52.520;13.332;2022-10-16T07:30:54;5.03;;;1.95;;
19095;SDS011;9680;52.520;13.332;2022-10-16T07:33:20;2.88;;;1.77;;
19095;SDS011;9680;52.520;13.332;2022-10-16T07:35:52;2.40;;;1.75;;
19095;SDS011;9680;52.520;13.332;2022-10-16T07:38:19;7.38;;;1.92;;
19095;SDS011;9680;52.520;13.332;2022-10-16T07:40:45;3.15;;;1.80;;
19095;SDS011;9680;52.520;13.332;2022-10-16T07:43:11;3.30;;;1.90;;
19095;SDS011;9680;52.520;13.332;2022-10-16T07:45:37;3.40;;;1.83;;
19095;SDS011;9680;52.520;13.332;2022-10-16T07:48:11;3.17;;;1.90;;
19095;SDS011;9680;52.520;13.332;2022-10-16T07:50:36;3.50;;;1.85;;
19095;SDS011;9680;52.520;13.332;2022-10-16T07:53:03;1.92;;;1.63;;
19095;SDS011;9680;52.520;13.332;2022-10-16T07:55:28;2.28;;;1.63;;
19095;SDS011;9680;52.520;13.332;2022-10-16T07:57:54;2.10;;;1.60;;
19095;SDS011;9680;52.520;13.332;2022-10-16T08:00:20;3.08;;;1.60;;
19095;SDS011;9680;52.520;13.332;2022-10-16T08:02:45;2.70;;;1.75;;
19095;SDS011;9680;52.520;13.332;2022-10-16T08:05:11;1.90;;;1.42;;
19095;SDS011;9680;52.520;13.332;2022-10-16T08:07:36;2.63;;;1.70;;
19095;SDS011;9680;52.520;13.332;2022-10-16T08:10:05;2.67;;;1.60;;
19095;SDS011;9680;52.520;13.332;2022-10-16T08:12:41;2.05;;;1.40;;
19095;SDS011;9680;52.520;13.332;2022-10-16T08:15:06;2.50;;;1.52;;
19095;SDS011;9680;52.520;13.332;2022-10-16T08:17:32;5.20;;;1.70;;
19095;SDS011;9680;52.520;13.332;2022-10-16T08:19:58;3.70;;;1.60;;
19095;SDS011;9680;52.520;13.332;2022-10-16T08:22:23;1.60;;;1.27;;
19095;SDS011;9680;52.520;13.332;2022-10-16T08:24:49;2.20;;;1.63;;
19095;SDS011;9680;52.520;13.332;2022-10-16T08:27:14;2.55;;;1.60;;
19095;SDS011;9680;52.520;13.332;2022-10-16T08:29:40;4.18;;;1.92;;
19095;SDS011;9680;52.520;13.332;2022-10-16T08:32:05;3.17;;;1.58;;
19095;SDS011;9680;52.520;13.332;2022-10-16T08:34:31;1.92;;;1.52;;
19095;SDS011;9680;52.520;13.332;2022-10-16T08:36:56;3.88;;;1.65;;
19095;SDS011;9680;52.520;13.332;2022-10-16T08:39:22;3.67;;;1.40;;
19095;SDS011;9680;52.520;13.332;2022-10-16T08:47:43;1.77;;;1.30;;
19095;SDS011;9680;52.520;13.332;2022-10-16T09:19:36;2.92;;;1.60;;
19095;SDS011;9680;52.520;13.332;2022-10-16T09:22:14;3.20;;;1.20;;
19095;SDS011;9680;52.520;13.332;2022-10-16T09:24:41;1.85;;;1.50;;
19095;SDS011;9680;52.520;13.332;2022-10-16T09:27:09;3.13;;;1.45;;
19095;SDS011;9680;52.520;13.332;2022-10-16T09:29:37;2.42;;;1.40;;
19095;SDS011;9680;52.520;13.332;2022-10-16T09:32:09;2.13;;;1.60;;
19095;SDS011;9680;52.520;13.332;2022-10-16T09:34:37;3.92;;;1.40;;
19095;SDS011;9680;52.520;13.332;2022-10-16T09:37:12;3.47;;;1.50;;
19095;SDS011;9680;52.520;13.332;2022-10-16T09:39:50;3.80;;;1.40;;
19095;SDS011;9680;52.520;13.332;2022-10-16T09:42:21;2.65;;;1.30;;
19095;SDS011;9680;52.520;13.332;2022-10-16T09:44:52;2.05;;;1.60;;
19095;SDS011;9680;52.520;13.332;2022-10-16T09:47:25;2.13;;;1.40;;
19095;SDS011;9680;52.520;13.332;2022-10-16T09:49:54;1.92;;;1.38;;
19095;SDS011;9680;52.520;13.332;2022-10-16T09:52:20;1.90;;;1.20;;
19095;SDS011;9680;52.520;13.332;2022-10-16T09:54:56;2.53;;;1.63;;
19095;SDS011;9680;52.520;13.332;2022-10-16T09:57:22;1.80;;;1.33;;
19095;SDS011;9680;52.520;13.332;2022-10-16T09:59:48;2.88;;;1.20;;
19095;SDS011;9680;52.520;13.332;2022-10-16T10:02:19;1.70;;;1.23;;
19095;SDS011;9680;52.520;13.332;2022-10-16T10:04:54;2.20;;;1.40;;
19095;SDS011;9680;52.520;13.332;2022-10-16T10:07:23;3.60;;;1.40;;
19095;SDS011;9680;52.520;13.332;2022-10-16T10:09:51;2.38;;;1.23;;
19095;SDS011;9680;52.520;13.332;2022-10-16T10:12:21;4.05;;;1.52;;
19095;SDS011;9680;52.520;13.332;2022-10-16T10:14:50;4.05;;;1.42;;
19095;SDS011;9680;52.520;13.332;2022-10-16T10:17:26;6.22;;;1.88;;
19095;SDS011;9680;52.520;13.332;2022-10-16T10:20:18;8.70;;;1.50;;
19095;SDS011;9680;52.520;13.332;2022-10-16T10:22:49;1.30;;;1.13;;
19095;SDS011;9680;52.520;13.332;2022-10-16T10:25:36;1.80;;;1.42;;
19095;SDS011;9680;52.520;13.332;2022-10-16T10:31:13;7.40;;;1.50;;
19095;SDS011;9680;52.520;13.332;2022-10-16T10:36:25;3.30;;;1.55;;
19095;SDS011;9680;52.520;13.332;2022-10-16T10:39:19;3.53;;;1.50;;
19095;SDS011;9680;52.520;13.332;2022-10-16T10:42:14;2.90;;;1.40;;
19095;SDS011;9680;52.520;13.332;2022-10-16T10:49:54;3.13;;;1.23;;
19095;SDS011;9680;52.520;13.332;2022-10-16T11:04:15;1.23;;;1.10;;
19095;SDS011;9680;52.520;13.332;2022-10-16T11:07:04;2.35;;;1.23;;
19095;SDS011;9680;52.520;13.332;2022-10-16T11:09:36;1.60;;;1.10;;
19095;SDS011;9680;52.520;13.332;2022-10-16T11:12:15;1.88;;;1.10;;
19095;SDS011;9680;52.520;13.332;2022-10-16T11:15:07;2.40;;;1.83;;
19095;SDS011;9680;52.520;13.332;2022-10-16T11:17:48;2.72;;;1.60;;
19095;SDS011;9680;52.520;13.332;2022-10-16T11:20:23;1.20;;;1.10;;
19095;SDS011;9680;52.520;13.332;2022-10-16T11:22:54;1.80;;;1.20;;
19095;SDS011;9680;52.520;13.332;2022-10-16T11:25:28;3.03;;;1.00;;
19095;SDS011;9680;52.520;13.332;2022-10-16T11:28:00;1.52;;;1.00;;
19095;SDS011;9680;52.520;13.332;2022-10-16T11:30:29;2.55;;;1.63;;
19095;SDS011;9680;52.520;13.332;2022-10-16T11:35:48;2.55;;;1.15;;
19095;SDS011;9680;52.520;13.332;2022-10-16T11:41:13;2.00;;;1.17;;
19095;SDS011;9680;52.520;13.332;2022-10-16T11:44:32;1.35;;;1.08;;
19095;SDS011;9680;52.520;13.332;2022-10-16T11:49:53;1.55;;;1.00;;
19095;SDS011;9680;52.520;13.332;2022-10-16T11:55:09;1.20;;;0.98;;
19095;SDS011;9680;52.520;13.332;2022-10-16T11:57:44;3.15;;;1.00;;
19095;SDS011;9680;52.520;13.332;2022-10-16T12:00:37;1.13;;;0.80;;
19095;SDS011;9680;52.520;13.332;2022-10-16T12:03:17;1.60;;;1.00;;
19095;SDS011;9680;52.520;13.332;2022-10-16T12:08:58;3.53;;;0.80;;
19095;SDS011;9680;52.520;13.332;2022-10-16T12:19:22;2.33;;;1.08;;
19095;SDS011;9680;52.520;13.332;2022-10-16T12:22:54;3.05;;;0.90;;
19095;SDS011;9680;52.520;13.332;2022-10-16T12:25:36;1.13;;;0.80;;
19095;SDS011;9680;52.520;13.332;2022-10-16T12:30:40;1.15;;;0.80;;
19095;SDS011;9680;52.520;13.332;2022-10-16T12:35:51;1.38;;;0.80;;
19095;SDS011;9680;52.520;13.332;2022-10-16T12:38:18;2.05;;;0.90;;
19095;SDS011;9680;52.520;13.332;2022-10-16T12:40:46;3.13;;;1.08;;
19095;SDS011;9680;52.520;13.332;2022-10-16T12:45:46;4.18;;;1.05;;
19095;SDS011;9680;52.520;13.332;2022-10-16T12:48:21;2.17;;;0.82;;
19095;SDS011;9680;52.520;13.332;2022-10-16T12:50:47;6.07;;;1.00;;
19095;SDS011;9680;52.520;13.332;2022-10-16T12:53:17;1.08;;;0.70;;
19095;SDS011;9680;52.520;13.332;2022-10-16T13:01:03;0.98;;;0.70;;
19095;SDS011;9680;52.520;13.332;2022-10-16T13:03:57;1.15;;;0.70;;
19095;SDS011;9680;52.520;13.332;2022-10-16T13:09:28;2.80;;;0.80;;
19095;SDS011;9680;52.520;13.332;2022-10-16T13:28:45;2.83;;;0.70;;
19095;SDS011;9680;52.520;13.332;2022-10-16T13:31:18;1.58;;;0.52;;
19095;SDS011;9680;52.520;13.332;2022-10-16T13:33:47;1.02;;;0.70;;
19095;SDS011;9680;52.520;13.332;2022-10-16T13:36:27;2.05;;;0.70;;
19095;SDS011;9680;52.520;13.332;2022-10-16T13:39:06;0.65;;;0.55;;
19095;SDS011;9680;52.520;13.332;2022-10-16T13:41:36;2.38;;;0.77;;
19095;SDS011;9680;52.520;13.332;2022-10-16T13:44:02;0.75;;;0.60;;
19095;SDS011;9680;52.520;13.332;2022-10-16T13:46:30;1.00;;;0.70;;
19095;SDS011;9680;52.520;13.332;2022-10-16T13:49:03;3.85;;;0.70;;
19095;SDS011;9680;52.520;13.332;2022-10-16T13:51:31;2.72;;;0.80;;
19095;SDS011;9680;52.520;13.332;2022-10-16T13:53:57;1.95;;;0.60;;
19095;SDS011;9680;52.520;13.332;2022-10-16T13:56:27;0.93;;;0.77;;
19095;SDS011;9680;52.520;13.332;2022-10-16T13:59:05;3.63;;;0.80;;
19095;SDS011;9680;52.520;13.332;2022-10-16T14:01:48;1.17;;;0.60;;
19095;SDS011;9680;52.520;13.332;2022-10-16T14:04:16;0.80;;;0.60;;
19095;SDS011;9680;52.520;13.332;2022-10-16T14:06:43;1.90;;;0.80;;
19095;SDS011;9680;52.520;13.332;2022-10-16T14:11:49;3.95;;;0.70;;
19095;SDS011;9680;52.520;13.332;2022-10-16T14:14:22;1.02;;;0.70;;
19095;SDS011;9680;52.520;13.332;2022-10-16T14:16:48;0.70;;;0.60;;
19095;SDS011;9680;52.520;13.332;2022-10-16T14:19:20;10.88;;;0.80;;
19095;SDS011;9680;52.520;13.332;2022-10-16T14:21:53;0.68;;;0.55;;
19095;SDS011;9680;52.520;13.332;2022-10-16T14:24:26;1.65;;;0.82;;
19095;SDS011;9680;52.520;13.332;2022-10-16T14:26:56;2.25;;;1.02;;
19095;SDS011;9680;52.520;13.332;2022-10-16T14:29:23;1.60;;;0.90;;
19095;SDS011;9680;52.520;13.332;2022-10-16T14:34:52;1.95;;;1.30;;
19095;SDS011;9680;52.520;13.332;2022-10-16T14:39:54;1.23;;;0.68;;
19095;SDS011;9680;52.520;13.332;2022-10-16T14:42:21;1.50;;;1.00;;
19095;SDS011;9680;52.520;13.332;2022-10-16T14:44:50;1.33;;;0.80;;
19095;SDS011;9680;52.520;13.332;2022-10-16T14:47:20;1.45;;;0.75;;
19095;SDS011;9680;52.520;13.332;2022-10-16T14:49:51;0.80;;;0.77;;
19095;SDS011;9680;52.520;13.332;2022-10-16T14:52:19;2.45;;;0.80;;
19095;SDS011;9680;52.520;13.332;2022-10-16T14:54:47;1.33;;;0.90;;
19095;SDS011;9680;52.520;13.332;2022-10-16T14:57:18;1.10;;;0.80;;
19095;SDS011;9680;52.520;13.332;2022-10-16T14:59:45;1.55;;;0.93;;
19095;SDS011;9680;52.520;13.332;2022-10-16T15:02:31;1.55;;;1.10;;
19095;SDS011;9680;52.520;13.332;2022-10-16T15:05:04;1.80;;;0.90;;
19095;SDS011;9680;52.520;13.332;2022-10-16T15:07:39;2.40;;;0.95;;
19095;SDS011;9680;52.520;13.332;2022-10-16T15:10:04;1.42;;;1.00;;
19095;SDS011;9680;52.520;13.332;2022-10-16T15:12:30;1.70;;;0.90;;
19095;SDS011;9680;52.520;13.332;2022-10-16T15:14:56;1.38;;;0.80;;
19095;SDS011;9680;52.520;13.332;2022-10-16T15:17:21;1.13;;;0.90;;
19095;SDS011;9680;52.520;13.332;2022-10-16T15:19:47;2.72;;;0.90;;
19095;SDS011;9680;52.520;13.332;2022-10-16T15:22:12;1.67;;;1.00;;
19095;SDS011;9680;52.520;13.332;2022-10-16T15:24:38;1.50;;;0.90;;
19095;SDS011;9680;52.520;13.332;2022-10-16T15:27:03;8.70;;;1.00;;
19095;SDS011;9680;52.520;13.332;2022-10-16T15:29:29;1.60;;;1.10;;
19095;SDS011;9680;52.520;13.332;2022-10-16T15:31:54;2.88;;;0.93;;
19095;SDS011;9680;52.520;13.332;2022-10-16T15:34:19;2.72;;;1.20;;
19095;SDS011;9680;52.520;13.332;2022-10-16T15:36:45;2.60;;;1.00;;
19095;SDS011;9680;52.520;13.332;2022-10-16T15:39:12;1.80;;;1.10;;
19095;SDS011;9680;52.520;13.332;2022-10-16T15:41:45;1.73;;;1.02;;
19095;SDS011;9680;52.520;13.332;2022-10-16T15:44:16;4.65;;;1.40;;
19095;SDS011;9680;52.520;13.332;2022-10-16T15:46:42;3.80;;;1.33;;
19095;SDS011;9680;52.520;13.332;2022-10-16T15:49:08;1.77;;;0.93;;
19095;SDS011;9680;52.520;13.332;2022-10-16T15:51:36;3.17;;;1.48;;
19095;SDS011;9680;52.520;13.332;2022-10-16T15:54:03;3.25;;;1.52;;
19095;SDS011;9680;52.520;13.332;2022-10-16T15:56:28;2.25;;;1.23;;
19095;SDS011;9680;52.520;13.332;2022-10-16T15:58:54;2.30;;;1.17;;
19095;SDS011;9680;52.520;13.332;2022-10-16T16:01:20;2.38;;;1.60;;
19095;SDS011;9680;52.520;13.332;2022-10-16T16:03:46;5.00;;;1.20;;
19095;SDS011;9680;52.520;13.332;2022-10-16T16:06:12;4.10;;;1.20;;
19095;SDS011;9680;52.520;13.332;2022-10-16T16:08:39;1.75;;;1.23;;
19095;SDS011;9680;52.520;13.332;2022-10-16T16:13:32;4.13;;;1.42;;
19095;SDS011;9680;52.520;13.332;2022-10-16T16:15:57;3.85;;;1.30;;
19095;SDS011;9680;52.520;13.332;2022-10-16T16:18:23;3.97;;;1.13;;
19095;SDS011;9680;52.520;13.332;2022-10-16T16:20:52;4.20;;;1.38;;
19095;SDS011;9680;52.520;13.332;2022-10-16T16:23:18;5.05;;;1.52;;
19095;SDS011;9680;52.520;13.332;2022-10-16T16:25:44;3.33;;;1.30;;
19095;SDS011;9680;52.520;13.332;2022-10-16T16:28:10;3.83;;;1.40;;
19095;SDS011;9680;52.520;13.332;2022-10-16T16:30:39;5.53;;;1.92;;
19095;SDS011;9680;52.520;13.332;2022-10-16T16:33:05;3.55;;;1.30;;
19095;SDS011;9680;52.520;13.332;2022-10-16T16:35:31;3.28;;;1.70;;
19095;SDS011;9680;52.520;13.332;2022-10-16T16:37:56;4.65;;;1.70;;
19095;SDS011;9680;52.520;13.332;2022-10-16T16:40:22;3.53;;;1.55;;
19095;SDS011;9680;52.520;13.332;2022-10-16T16:42:48;3.78;;;1.40;;
19095;SDS011;9680;52.520;13.332;2022-10-16T16:45:14;3.90;;;1.50;;
19095;SDS011;9680;52.520;13.332;2022-10-16T16:47:39;2.95;;;1.50;;
19095;SDS011;9680;52.520;13.332;2022-10-16T16:50:05;3.58;;;2.10;;
19095;SDS011;9680;52.520;13.332;2022-10-16T16:52:32;3.28;;;1.52;;
19095;SDS011;9680;52.520;13.332;2022-10-16T16:54:58;4.70;;;1.65;;
19095;SDS011;9680;52.520;13.332;2022-10-16T16:57:23;4.63;;;1.50;;
19095;SDS011;9680;52.520;13.332;2022-10-16T16:59:49;7.88;;;1.88;;
19095;SDS011;9680;52.520;13.332;2022-10-16T17:02:16;2.75;;;1.70;;
19095;SDS011;9680;52.520;13.332;2022-10-16T17:04:42;4.50;;;1.40;;
19095;SDS011;9680;52.520;13.332;2022-10-16T17:07:07;8.43;;;2.28;;
19095;SDS011;9680;52.520;13.332;2022-10-16T17:09:33;3.10;;;1.98;;
19095;SDS011;9680;52.520;13.332;2022-10-16T17:11:58;3.83;;;1.90;;
19095;SDS011;9680;52.520;13.332;2022-10-16T17:14:24;4.93;;;2.83;;
19095;SDS011;9680;52.520;13.332;2022-10-16T17:16:51;9.48;;;3.10;;